sensor_id;sensor_type;location;lat;lon;timestamp;pressure;altitude;pressure_sealevel;temperature;humidity
10145;BME280;5113;41.822;23.564;2023-02-01T00:00:51;-10923.69;;;-0.39;87.58
10145;BME280;5113;41.822;23.564;2023-02-01T00:03:58;-10927.19;;;-0.26;87.12
10145;BME280;5113;41.822;23.564;2023-02-01T00:07:04;-10925.34;;;-0.33;87.44
10145;BME280;5113;41.822;23.564;2023-02-01T00:10:11;-10925.63;;;-0.32;84.76
10145;BME280;5113;41.822;23.564;2023-02-01T00:13:19;-10928.72;;;-0.21;84.37
10145;BME280;5113;41.822;23.564;2023-02-01T00:16:27;-10927.47;;;-0.25;84.99
10145;BME280;5113;41.822;23.564;2023-02-01T00:19:34;-10930.41;;;-0.15;83.65
10145;BME280;5113;41.822;23.564;2023-02-01T00:22:40;-10932.22;;;-0.08;83.02
10145;BME280;5113;41.822;23.564;2023-02-01T00:25:46;-10924.78;;;-0.35;81.55
10145;BME280;5113;41.822;23.564;2023-02-01T00:28:54;-10929.00;;;-0.20;81.03
10145;BME280;5113;41.822;23.564;2023-02-01T00:32:00;-10928.03;;;-0.23;81.06
10145;BME280;5113;41.822;23.564;2023-02-01T00:35:08;-10932.91;;;-0.06;80.64
10145;BME280;5113;41.822;23.564;2023-02-01T00:38:14;-10927.31;;;-0.26;81.58
10145;BME280;5113;41.822;23.564;2023-02-01T00:41:21;-10932.63;;;-0.07;80.13
10145;BME280;5113;41.822;23.564;2023-02-01T00:44:29;-10931.25;;;-0.12;79.80
10145;BME280;5113;41.822;23.564;2023-02-01T00:47:38;-10927.59;;;-0.25;81.21
10145;BME280;5113;41.822;23.564;2023-02-01T00:50:44;-10933.47;;;-0.04;80.67
10145;BME280;5113;41.822;23.564;2023-02-01T00:53:51;-10930.13;;;-0.16;79.37
10145;BME280;5113;41.822;23.564;2023-02-01T00:56:57;-10934.31;;;-0.01;79.64
10145;BME280;5113;41.822;23.564;2023-02-01T01:00:06;-10932.63;;;-0.07;78.75
10145;BME280;5113;41.822;23.564;2023-02-01T01:03:13;-10930.41;;;-0.15;79.56
10145;BME280;5113;41.822;23.564;2023-02-01T01:06:24;-10931.25;;;-0.12;77.80
10145;BME280;5113;41.822;23.564;2023-02-01T01:09:31;-10933.75;;;-0.03;80.65
10145;BME280;5113;41.822;23.564;2023-02-01T01:12:37;-10932.09;;;-0.09;81.54
10145;BME280;5113;41.822;23.564;2023-02-01T01:15:45;-10934.31;;;-0.01;81.73
10145;BME280;5113;41.822;23.564;2023-02-01T01:18:52;-10935.03;;;0.02;82.66
10145;BME280;5113;41.822;23.564;2023-02-01T01:21:59;-10934.59;;;0.00;83.93
10145;BME280;5113;41.822;23.564;2023-02-01T01:25:06;-10932.91;;;-0.06;84.16
10145;BME280;5113;41.822;23.564;2023-02-01T01:28:12;-10930.13;;;-0.16;83.68
10145;BME280;5113;41.822;23.564;2023-02-01T01:31:20;-10932.91;;;-0.06;83.02
10145;BME280;5113;41.822;23.564;2023-02-01T01:34:27;-10935.56;;;0.04;82.75
10145;BME280;5113;41.822;23.564;2023-02-01T01:37:33;-10933.19;;;-0.05;82.15
10145;BME280;5113;41.822;23.564;2023-02-01T01:40:44;-10932.91;;;-0.06;81.74
10145;BME280;5113;41.822;23.564;2023-02-01T01:43:56;-10935.16;;;0.03;80.97
10145;BME280;5113;41.822;23.564;2023-02-01T01:47:04;-10930.97;;;-0.13;81.65
10145;BME280;5113;41.822;23.564;2023-02-01T01:50:13;-10931.38;;;-0.11;81.98
10145;BME280;5113;41.822;23.564;2023-02-01T01:53:24;-10932.63;;;-0.07;82.75
10145;BME280;5113;41.822;23.564;2023-02-01T01:56:32;-10930.69;;;-0.14;83.89
10145;BME280;5113;41.822;23.564;2023-02-01T01:59:41;-10926.34;;;-0.29;87.56
10145;BME280;5113;41.822;23.564;2023-02-01T02:02:54;-10920.03;;;-0.52;91.67
10145;BME280;5113;41.822;23.564;2023-02-01T02:06:04;-10910.50;;;-0.87;97.98
10145;BME280;5113;41.822;23.564;2023-02-01T02:09:13;-10907.00;;;-1.00;100.00
10145;BME280;5113;41.822;23.564;2023-02-01T02:12:20;-10904.22;;;-1.10;100.00
10145;BME280;5113;41.822;23.564;2023-02-01T02:15:27;-10900.16;;;-1.24;100.00
10145;BME280;5113;41.822;23.564;2023-02-01T02:18:41;-10896.50;;;-1.38;100.00
10145;BME280;5113;41.822;23.564;2023-02-01T02:22:00;-10893.16;;;-1.50;100.00
10145;BME280;5113;41.822;23.564;2023-02-01T02:25:44;-10900.28;;;-1.24;100.00
10145;BME280;5113;41.822;23.564;2023-02-01T02:29:36;-10903.22;;;-1.13;100.00
10145;BME280;5113;41.822;23.564;2023-02-01T02:36:30;-10908.84;;;-0.93;98.92
10145;BME280;5113;41.822;23.564;2023-02-01T02:39:46;-10915.84;;;-0.68;91.18
10145;BME280;5113;41.822;23.564;2023-02-01T02:43:04;-10922.00;;;-0.45;87.28
10145;BME280;5113;41.822;23.564;2023-02-01T02:46:36;-10922.28;;;-0.44;87.17
10145;BME280;5113;41.822;23.564;2023-02-01T02:50:11;-10919.06;;;-0.56;87.08
10145;BME280;5113;41.822;23.564;2023-02-01T02:53:47;-10916.97;;;-0.63;88.05
10145;BME280;5113;41.822;23.564;2023-02-01T02:57:16;-10918.50;;;-0.58;87.68
10145;BME280;5113;41.822;23.564;2023-02-01T03:00:42;-10914.44;;;-0.73;87.74
10145;BME280;5113;41.822;23.564;2023-02-01T03:04:06;-10914.72;;;-0.72;88.00
10145;BME280;5113;41.822;23.564;2023-02-01T03:07:53;-10914.44;;;-0.73;87.01
10145;BME280;5113;41.822;23.564;2023-02-01T03:11:04;-10917.09;;;-0.63;86.89
10145;BME280;5113;41.822;23.564;2023-02-01T03:14:13;-10916.41;;;-0.65;85.47
10145;BME280;5113;41.822;23.564;2023-02-01T03:17:21;-10914.72;;;-0.72;85.06
10145;BME280;5113;41.822;23.564;2023-02-01T03:20:29;-10913.72;;;-0.75;84.94
10145;BME280;5113;41.822;23.564;2023-02-01T03:23:36;-10915.13;;;-0.70;83.36
10145;BME280;5113;41.822;23.564;2023-02-01T03:26:49;-10916.53;;;-0.65;82.17
10145;BME280;5113;41.822;23.564;2023-02-01T03:30:02;-10914.72;;;-0.72;79.83
10145;BME280;5113;41.822;23.564;2023-02-01T03:33:14;-10916.53;;;-0.65;79.64
10145;BME280;5113;41.822;23.564;2023-02-01T03:36:31;-10915.28;;;-0.70;79.04
10145;BME280;5113;41.822;23.564;2023-02-01T03:39:43;-10912.75;;;-0.79;77.43
10145;BME280;5113;41.822;23.564;2023-02-01T03:42:55;-10915.97;;;-0.67;75.91
10145;BME280;5113;41.822;23.564;2023-02-01T03:46:06;-10916.69;;;-0.64;75.29
10145;BME280;5113;41.822;23.564;2023-02-01T03:49:19;-10915.97;;;-0.67;75.45
10145;BME280;5113;41.822;23.564;2023-02-01T03:52:29;-10915.69;;;-0.68;75.14
10145;BME280;5113;41.822;23.564;2023-02-01T03:55:36;-10915.13;;;-0.70;75.38
10145;BME280;5113;41.822;23.564;2023-02-01T03:58:44;-10915.00;;;-0.71;76.57
10145;BME280;5113;41.822;23.564;2023-02-01T04:02:03;-10918.06;;;-0.59;76.18
10145;BME280;5113;41.822;23.564;2023-02-01T04:05:10;-10911.63;;;-0.83;78.79
10145;BME280;5113;41.822;23.564;2023-02-01T04:08:17;-10912.75;;;-0.79;79.72
10145;BME280;5113;41.822;23.564;2023-02-01T04:11:23;-10912.91;;;-0.78;81.16
10145;BME280;5113;41.822;23.564;2023-02-01T04:14:33;-10915.00;;;-0.71;81.69
10145;BME280;5113;41.822;23.564;2023-02-01T04:17:39;-10909.13;;;-0.92;81.87
10145;BME280;5113;41.822;23.564;2023-02-01T04:20:45;-10906.88;;;-1.00;81.83
10145;BME280;5113;41.822;23.564;2023-02-01T04:23:52;-10912.06;;;-0.81;80.50
10145;BME280;5113;41.822;23.564;2023-02-01T04:26:58;-10913.03;;;-0.78;79.43
10145;BME280;5113;41.822;23.564;2023-02-01T04:30:07;-10915.13;;;-0.70;79.18
10145;BME280;5113;41.822;23.564;2023-02-01T04:33:14;-10914.44;;;-0.73;76.79
10145;BME280;5113;41.822;23.564;2023-02-01T04:36:20;-10911.91;;;-0.82;77.06
10145;BME280;5113;41.822;23.564;2023-02-01T04:39:27;-10911.78;;;-0.82;77.28
10145;BME280;5113;41.822;23.564;2023-02-01T04:42:33;-10915.84;;;-0.68;76.79
10145;BME280;5113;41.822;23.564;2023-02-01T04:45:40;-10910.50;;;-0.87;79.44
10145;BME280;5113;41.822;23.564;2023-02-01T04:48:46;-10919.47;;;-0.54;79.03
10145;BME280;5113;41.822;23.564;2023-02-01T04:51:53;-10911.63;;;-0.83;81.44
10145;BME280;5113;41.822;23.564;2023-02-01T04:54:59;-10913.31;;;-0.77;81.69
10145;BME280;5113;41.822;23.564;2023-02-01T04:58:06;-10915.84;;;-0.68;80.98
10145;BME280;5113;41.822;23.564;2023-02-01T05:01:14;-10910.50;;;-0.87;84.42
10145;BME280;5113;41.822;23.564;2023-02-01T05:04:20;-10903.22;;;-1.13;86.66
10145;BME280;5113;41.822;23.564;2023-02-01T05:07:27;-10905.19;;;-1.06;86.34
10145;BME280;5113;41.822;23.564;2023-02-01T05:10:33;-10912.75;;;-0.79;84.19
10145;BME280;5113;41.822;23.564;2023-02-01T05:13:39;-10906.72;;;-1.01;85.26
10145;BME280;5113;41.822;23.564;2023-02-01T05:16:54;-10897.78;;;-1.33;88.11
10145;BME280;5113;41.822;23.564;2023-02-01T05:20:01;-10901.00;;;-1.21;88.14
10145;BME280;5113;41.822;23.564;2023-02-01T05:23:07;-10891.91;;;-1.54;89.31
10145;BME280;5113;41.822;23.564;2023-02-01T05:26:13;-10896.94;;;-1.36;91.33
10145;BME280;5113;41.822;23.564;2023-02-01T05:29:19;-10895.53;;;-1.41;90.51
10145;BME280;5113;41.822;23.564;2023-02-01T05:32:27;-10892.59;;;-1.52;90.63
10145;BME280;5113;41.822;23.564;2023-02-01T05:35:34;-10888.13;;;-1.68;91.43
10145;BME280;5113;41.822;23.564;2023-02-01T05:38:40;-10897.63;;;-1.34;91.90
10145;BME280;5113;41.822;23.564;2023-02-01T05:41:47;-10896.78;;;-1.37;92.93
10145;BME280;5113;41.822;23.564;2023-02-01T05:44:53;-10897.91;;;-1.33;92.23
10145;BME280;5113;41.822;23.564;2023-02-01T05:48:01;-10900.56;;;-1.23;92.39
10145;BME280;5113;41.822;23.564;2023-02-01T05:51:09;-10899.47;;;-1.27;93.06
10145;BME280;5113;41.822;23.564;2023-02-01T05:54:15;-10891.75;;;-1.55;93.09
10145;BME280;5113;41.822;23.564;2023-02-01T05:57:22;-10895.25;;;-1.42;91.36
10145;BME280;5113;41.822;23.564;2023-02-01T06:00:28;-10905.75;;;-1.04;92.18
10145;BME280;5113;41.822;23.564;2023-02-01T06:03:36;-10895.13;;;-1.43;92.35
10145;BME280;5113;41.822;23.564;2023-02-01T06:06:42;-10904.22;;;-1.10;91.84
10145;BME280;5113;41.822;23.564;2023-02-01T06:09:48;-10901.97;;;-1.18;89.61
10145;BME280;5113;41.822;23.564;2023-02-01T06:12:54;-10901.00;;;-1.21;90.29
10145;BME280;5113;41.822;23.564;2023-02-01T06:16:01;-10905.19;;;-1.06;88.28
10145;BME280;5113;41.822;23.564;2023-02-01T06:19:09;-10905.75;;;-1.04;86.49
10145;BME280;5113;41.822;23.564;2023-02-01T06:22:15;-10909.13;;;-0.92;87.57
10145;BME280;5113;41.822;23.564;2023-02-01T06:25:21;-10910.50;;;-0.87;87.81
10145;BME280;5113;41.822;23.564;2023-02-01T06:28:27;-10911.50;;;-0.83;90.17
10145;BME280;5113;41.822;23.564;2023-02-01T06:31:33;-10907.72;;;-0.97;90.50
10145;BME280;5113;41.822;23.564;2023-02-01T06:34:41;-10907.44;;;-0.98;91.68
10145;BME280;5113;41.822;23.564;2023-02-01T06:37:47;-10913.03;;;-0.78;89.56
10145;BME280;5113;41.822;23.564;2023-02-01T06:40:54;-10914.72;;;-0.72;91.11
10145;BME280;5113;41.822;23.564;2023-02-01T06:44:01;-10924.38;;;-0.37;86.94
10145;BME280;5113;41.822;23.564;2023-02-01T06:47:07;-10929.13;;;-0.19;86.70
10145;BME280;5113;41.822;23.564;2023-02-01T06:50:15;-10929.28;;;-0.19;87.50
10145;BME280;5113;41.822;23.564;2023-02-01T06:53:21;-10930.25;;;-0.15;86.19
10145;BME280;5113;41.822;23.564;2023-02-01T06:56:28;-10939.91;;;0.20;84.68
10145;BME280;5113;41.822;23.564;2023-02-01T06:59:36;-10935.56;;;0.04;82.55
10145;BME280;5113;41.822;23.564;2023-02-01T07:02:42;-10952.53;;;0.65;80.46
10145;BME280;5113;41.822;23.564;2023-02-01T07:05:49;-10957.72;;;0.84;80.55
10145;BME280;5113;41.822;23.564;2023-02-01T07:08:57;-10957.28;;;0.83;78.89
10145;BME280;5113;41.822;23.564;2023-02-01T07:12:05;-10942.31;;;0.28;80.11
10145;BME280;5113;41.822;23.564;2023-02-01T07:15:11;-10938.81;;;0.16;82.09
10145;BME280;5113;41.822;23.564;2023-02-01T07:18:18;-10981.41;;;1.70;79.83
10145;BME280;5113;41.822;23.564;2023-02-01T07:21:25;-10962.91;;;1.03;78.22
10145;BME280;5113;41.822;23.564;2023-02-01T07:24:33;-10970.47;;;1.30;75.18
10145;BME280;5113;41.822;23.564;2023-02-01T07:27:40;-10975.09;;;1.47;73.80
10145;BME280;5113;41.822;23.564;2023-02-01T07:30:46;-10978.88;;;1.61;73.75
10145;BME280;5113;41.822;23.564;2023-02-01T07:33:55;-10974.94;;;1.47;73.42
10145;BME280;5113;41.822;23.564;2023-02-01T07:37:04;-10978.03;;;1.58;74.11
10145;BME280;5113;41.822;23.564;2023-02-01T07:40:11;-10997.66;;;2.29;72.88
10145;BME280;5113;41.822;23.564;2023-02-01T07:43:18;-10999.34;;;2.35;70.58
10145;BME280;5113;41.822;23.564;2023-02-01T07:46:24;-11013.22;;;2.85;68.08
10145;BME280;5113;41.822;23.564;2023-02-01T07:49:30;-11018.28;;;3.04;68.54
10145;BME280;5113;41.822;23.564;2023-02-01T07:52:38;-10994.16;;;2.16;69.09
10145;BME280;5113;41.822;23.564;2023-02-01T07:55:45;-11013.22;;;2.85;68.77
10145;BME280;5113;41.822;23.564;2023-02-01T07:58:53;-11008.03;;;2.67;69.70
10145;BME280;5113;41.822;23.564;2023-02-01T08:02:00;-11016.59;;;2.97;69.29
10145;BME280;5113;41.822;23.564;2023-02-01T08:05:07;-11030.47;;;3.48;69.30
10145;BME280;5113;41.822;23.564;2023-02-01T08:08:15;-11020.66;;;3.12;69.54
10145;BME280;5113;41.822;23.564;2023-02-01T08:11:22;-11017.16;;;2.99;68.71
10145;BME280;5113;41.822;23.564;2023-02-01T08:14:28;-11024.59;;;3.26;67.88
10145;BME280;5113;41.822;23.564;2023-02-01T08:17:34;-11015.03;;;2.92;68.30
10145;BME280;5113;41.822;23.564;2023-02-01T08:20:41;-11012.81;;;2.84;67.59
10145;BME280;5113;41.822;23.564;2023-02-01T08:23:51;-11006.06;;;2.59;68.96
10145;BME280;5113;41.822;23.564;2023-02-01T08:26:57;-11021.50;;;3.15;67.05
10145;BME280;5113;41.822;23.564;2023-02-01T08:30:05;-11027.66;;;3.38;65.15
10145;BME280;5113;41.822;23.564;2023-02-01T08:33:12;-11041.69;;;3.88;64.70
10145;BME280;5113;41.822;23.564;2023-02-01T08:36:22;-11030.75;;;3.49;63.72
10145;BME280;5113;41.822;23.564;2023-02-01T08:39:32;-11031.44;;;3.51;64.10
10145;BME280;5113;41.822;23.564;2023-02-01T08:42:40;-11040.84;;;3.85;63.49
10145;BME280;5113;41.822;23.564;2023-02-01T08:46:02;-11048.00;;;4.11;62.95
10145;BME280;5113;41.822;23.564;2023-02-01T08:49:08;-11026.41;;;3.33;64.04
10145;BME280;5113;41.822;23.564;2023-02-01T08:52:14;-11041.56;;;3.88;63.76
10145;BME280;5113;41.822;23.564;2023-02-01T08:55:22;-11039.16;;;3.79;62.77
10145;BME280;5113;41.822;23.564;2023-02-01T08:58:28;-11059.94;;;4.54;60.57
10145;BME280;5113;41.822;23.564;2023-02-01T09:01:35;-11064.16;;;4.70;60.22
10145;BME280;5113;41.822;23.564;2023-02-01T09:04:41;-11056.00;;;4.40;61.60
10145;BME280;5113;41.822;23.564;2023-02-01T09:07:48;-11058.53;;;4.49;61.21
10145;BME280;5113;41.822;23.564;2023-02-01T09:11:00;-11036.38;;;3.69;63.75
10145;BME280;5113;41.822;23.564;2023-02-01T09:14:07;-11043.09;;;3.93;63.21
10145;BME280;5113;41.822;23.564;2023-02-01T09:17:13;-11026.00;;;3.31;64.69
10145;BME280;5113;41.822;23.564;2023-02-01T09:20:20;-11031.59;;;3.52;65.17
10145;BME280;5113;41.822;23.564;2023-02-01T09:23:29;-11040.72;;;3.85;64.44
10145;BME280;5113;41.822;23.564;2023-02-01T09:26:36;-11063.31;;;4.67;62.42
10145;BME280;5113;41.822;23.564;2023-02-01T09:29:43;-11053.19;;;4.30;62.90
10145;BME280;5113;41.822;23.564;2023-02-01T09:32:49;-11042.41;;;3.91;62.85
10145;BME280;5113;41.822;23.564;2023-02-01T09:35:56;-11049.56;;;4.17;62.21
10145;BME280;5113;41.822;23.564;2023-02-01T09:39:02;-11054.75;;;4.36;61.15
10145;BME280;5113;41.822;23.564;2023-02-01T09:42:19;-11039.03;;;3.79;63.05
10145;BME280;5113;41.822;23.564;2023-02-01T09:45:32;-11051.25;;;4.23;62.46
10145;BME280;5113;41.822;23.564;2023-02-01T09:48:43;-11056.44;;;4.42;62.26
10145;BME280;5113;41.822;23.564;2023-02-01T09:51:51;-11038.47;;;3.77;63.51
10145;BME280;5113;41.822;23.564;2023-02-01T09:55:01;-11040.00;;;3.82;63.62
10145;BME280;5113;41.822;23.564;2023-02-01T09:58:13;-11068.63;;;4.86;62.46
10145;BME280;5113;41.822;23.564;2023-02-01T10:01:21;-11073.12;;;5.02;60.83
10145;BME280;5113;41.822;23.564;2023-02-01T10:04:28;-11070.03;;;4.91;60.19
10145;BME280;5113;41.822;23.564;2023-02-01T10:07:39;-11075.09;;;5.09;60.39
10145;BME280;5113;41.822;23.564;2023-02-01T10:10:49;-11086.31;;;5.50;59.40
10145;BME280;5113;41.822;23.564;2023-02-01T10:14:02;-11066.53;;;4.78;60.45
10145;BME280;5113;41.822;23.564;2023-02-01T10:17:23;-11081.56;;;5.32;60.63
10145;BME280;5113;41.822;23.564;2023-02-01T10:20:43;-11062.31;;;4.63;60.67
10145;BME280;5113;41.822;23.564;2023-02-01T10:24:02;-11070.75;;;4.93;60.91
10145;BME280;5113;41.822;23.564;2023-02-01T10:27:33;-11053.34;;;4.30;61.10
10145;BME280;5113;41.822;23.564;2023-02-01T10:30:44;-11055.72;;;4.39;62.85
10145;BME280;5113;41.822;23.564;2023-02-01T10:33:53;-11062.03;;;4.62;61.52
10145;BME280;5113;41.822;23.564;2023-02-01T10:37:10;-11070.75;;;4.93;60.86
10145;BME280;5113;41.822;23.564;2023-02-01T10:40:21;-11073.56;;;5.04;61.20
10145;BME280;5113;41.822;23.564;2023-02-01T10:43:29;-11067.09;;;4.80;60.47
10145;BME280;5113;41.822;23.564;2023-02-01T10:46:37;-11075.94;;;5.12;61.85
10145;BME280;5113;41.822;23.564;2023-02-01T10:49:47;-11071.31;;;4.95;60.02
10145;BME280;5113;41.822;23.564;2023-02-01T10:52:59;-11068.63;;;4.86;60.02
10145;BME280;5113;41.822;23.564;2023-02-01T10:56:09;-11065.00;;;4.73;60.64
10145;BME280;5113;41.822;23.564;2023-02-01T10:59:17;-11085.47;;;5.47;59.45
10145;BME280;5113;41.822;23.564;2023-02-01T11:02:31;-11082.13;;;5.35;59.49
10145;BME280;5113;41.822;23.564;2023-02-01T11:05:44;-11074.97;;;5.09;60.04
10145;BME280;5113;41.822;23.564;2023-02-01T11:08:52;-11081.28;;;5.31;59.35
10145;BME280;5113;41.822;23.564;2023-02-01T11:12:00;-11080.16;;;5.27;60.10
10145;BME280;5113;41.822;23.564;2023-02-01T11:15:14;-11072.00;;;4.98;59.57
10145;BME280;5113;41.822;23.564;2023-02-01T11:18:27;-11079.16;;;5.24;60.16
10145;BME280;5113;41.822;23.564;2023-02-01T11:21:34;-11081.00;;;5.30;59.66
10145;BME280;5113;41.822;23.564;2023-02-01T11:24:45;-11072.28;;;4.99;59.61
10145;BME280;5113;41.822;23.564;2023-02-01T11:27:54;-11074.53;;;5.07;59.25
10145;BME280;5113;41.822;23.564;2023-02-01T11:31:04;-11095.31;;;5.82;58.81
10145;BME280;5113;41.822;23.564;2023-02-01T11:34:15;-11097.56;;;5.90;58.90
10145;BME280;5113;41.822;23.564;2023-02-01T11:37:27;-11085.63;;;5.47;58.59
10145;BME280;5113;41.822;23.564;2023-02-01T11:40:38;-11099.53;;;5.97;57.07
10145;BME280;5113;41.822;23.564;2023-02-01T11:43:53;-11088.00;;;5.56;58.12
10145;BME280;5113;41.822;23.564;2023-02-01T11:47:24;-11091.09;;;5.67;57.89
10145;BME280;5113;41.822;23.564;2023-02-01T11:50:38;-11078.19;;;5.20;59.08
10145;BME280;5113;41.822;23.564;2023-02-01T11:54:02;-11082.69;;;5.37;57.71
10145;BME280;5113;41.822;23.564;2023-02-01T11:57:26;-11091.81;;;5.70;57.27
10145;BME280;5113;41.822;23.564;2023-02-01T12:00:57;-11088.84;;;5.59;56.53
10145;BME280;5113;41.822;23.564;2023-02-01T12:04:34;-11115.81;;;6.56;54.59
10145;BME280;5113;41.822;23.564;2023-02-01T12:08:02;-11110.47;;;6.37;54.20
10145;BME280;5113;41.822;23.564;2023-02-01T12:11:23;-11103.88;;;6.13;54.66
10145;BME280;5113;41.822;23.564;2023-02-01T12:21:52;-11096.16;;;5.85;53.54
10145;BME280;5113;41.822;23.564;2023-02-01T12:32:51;-11101.22;;;6.04;54.42
10145;BME280;5113;41.822;23.564;2023-02-01T12:36:10;-11109.06;;;6.32;54.94
10145;BME280;5113;41.822;23.564;2023-02-01T12:39:23;-11107.69;;;6.27;53.65
10145;BME280;5113;41.822;23.564;2023-02-01T12:42:36;-11103.19;;;6.11;53.02
10145;BME280;5113;41.822;23.564;2023-02-01T12:45:48;-11100.94;;;6.03;52.70
10145;BME280;5113;41.822;23.564;2023-02-01T12:49:02;-11102.34;;;6.08;52.08
10145;BME280;5113;41.822;23.564;2023-02-01T12:52:13;-11105.56;;;6.19;52.13
10145;BME280;5113;41.822;23.564;2023-02-01T12:55:23;-11106.13;;;6.21;50.18
10145;BME280;5113;41.822;23.564;2023-02-01T12:58:38;-11095.72;;;5.84;50.52
10145;BME280;5113;41.822;23.564;2023-02-01T13:01:50;-11106.69;;;6.23;50.06
10145;BME280;5113;41.822;23.564;2023-02-01T13:05:07;-11121.72;;;6.78;49.50
10145;BME280;5113;41.822;23.564;2023-02-01T13:08:21;-11115.25;;;6.54;49.06
10145;BME280;5113;41.822;23.564;2023-02-01T13:11:31;-11109.63;;;6.34;48.62
10145;BME280;5113;41.822;23.564;2023-02-01T13:14:44;-11106.84;;;6.24;49.08
10145;BME280;5113;41.822;23.564;2023-02-01T13:17:53;-11115.25;;;6.54;48.50
10145;BME280;5113;41.822;23.564;2023-02-01T13:21:04;-11115.81;;;6.56;49.23
10145;BME280;5113;41.822;23.564;2023-02-01T13:24:24;-11115.81;;;6.56;48.95
10145;BME280;5113;41.822;23.564;2023-02-01T13:27:37;-11117.09;;;6.61;47.75
10145;BME280;5113;41.822;23.564;2023-02-01T13:31:04;-11114.28;;;6.51;47.62
10145;BME280;5113;41.822;23.564;2023-02-01T13:34:50;-11116.66;;;6.59;47.36
10145;BME280;5113;41.822;23.564;2023-02-01T13:38:20;-11122.41;;;6.80;47.97
10145;BME280;5113;41.822;23.564;2023-02-01T13:41:41;-11122.41;;;6.80;46.61
10145;BME280;5113;41.822;23.564;2023-02-01T13:44:50;-11111.88;;;6.42;46.22
10145;BME280;5113;41.822;23.564;2023-02-01T13:48:04;-11121.44;;;6.77;45.77
10145;BME280;5113;41.822;23.564;2023-02-01T13:51:12;-11113.28;;;6.47;46.34
10145;BME280;5113;41.822;23.564;2023-02-01T13:54:29;-11136.59;;;7.32;46.29
10145;BME280;5113;41.822;23.564;2023-02-01T13:57:37;-11117.22;;;6.61;47.62
10145;BME280;5113;41.822;23.564;2023-02-01T14:00:45;-11116.38;;;6.58;46.51
10145;BME280;5113;41.822;23.564;2023-02-01T14:03:54;-11107.41;;;6.26;46.71
10145;BME280;5113;41.822;23.564;2023-02-01T14:07:01;-11109.63;;;6.34;46.75
10145;BME280;5113;41.822;23.564;2023-02-01T14:13:51;-11088.84;;;5.59;49.02
10145;BME280;5113;41.822;23.564;2023-02-01T14:20:41;-11083.09;;;5.38;49.58
10145;BME280;5113;41.822;23.564;2023-02-01T14:23:57;-11080.72;;;5.29;50.03
10145;BME280;5113;41.822;23.564;2023-02-01T14:27:17;-11078.47;;;5.21;50.76
10145;BME280;5113;41.822;23.564;2023-02-01T14:30:25;-11078.88;;;5.23;50.39
10145;BME280;5113;41.822;23.564;2023-02-01T14:33:32;-11073.41;;;5.03;50.45
10145;BME280;5113;41.822;23.564;2023-02-01T14:36:43;-11077.19;;;5.17;50.60
10145;BME280;5113;41.822;23.564;2023-02-01T14:39:54;-11071.88;;;4.97;51.50
10145;BME280;5113;41.822;23.564;2023-02-01T14:43:02;-11064.84;;;4.72;50.02
10145;BME280;5113;41.822;23.564;2023-02-01T14:46:08;-11064.44;;;4.71;50.67
10145;BME280;5113;41.822;23.564;2023-02-01T14:49:15;-11056.56;;;4.42;50.72
10145;BME280;5113;41.822;23.564;2023-02-01T14:52:29;-11056.72;;;4.43;51.20
10145;BME280;5113;41.822;23.564;2023-02-01T14:55:40;-11057.56;;;4.46;50.82
10145;BME280;5113;41.822;23.564;2023-02-01T14:58:53;-11055.88;;;4.40;52.04
10145;BME280;5113;41.822;23.564;2023-02-01T15:02:02;-11055.72;;;4.39;52.41
10145;BME280;5113;41.822;23.564;2023-02-01T15:05:27;-11051.09;;;4.22;51.66
10145;BME280;5113;41.822;23.564;2023-02-01T15:08:39;-11059.38;;;4.52;50.48
10145;BME280;5113;41.822;23.564;2023-02-01T15:11:57;-11057.28;;;4.45;50.22
10145;BME280;5113;41.822;23.564;2023-02-01T15:15:12;-11053.47;;;4.31;50.72
10145;BME280;5113;41.822;23.564;2023-02-01T15:18:18;-11051.25;;;4.23;52.13
10145;BME280;5113;41.822;23.564;2023-02-01T15:21:26;-11050.13;;;4.19;52.70
10145;BME280;5113;41.822;23.564;2023-02-01T15:24:36;-11053.19;;;4.30;51.81
10145;BME280;5113;41.822;23.564;2023-02-01T15:27:42;-11051.38;;;4.23;52.73
10145;BME280;5113;41.822;23.564;2023-02-01T15:30:54;-11048.00;;;4.11;53.10
10145;BME280;5113;41.822;23.564;2023-02-01T15:34:01;-11045.63;;;4.03;53.36
10145;BME280;5113;41.822;23.564;2023-02-01T15:37:12;-11046.75;;;4.07;52.94
10145;BME280;5113;41.822;23.564;2023-02-01T15:40:22;-11042.81;;;3.92;53.88
10145;BME280;5113;41.822;23.564;2023-02-01T15:43:30;-11043.53;;;3.95;53.30
10145;BME280;5113;41.822;23.564;2023-02-01T15:46:40;-11045.06;;;4.01;53.55
10145;BME280;5113;41.822;23.564;2023-02-01T15:49:50;-11042.97;;;3.93;52.76
10145;BME280;5113;41.822;23.564;2023-02-01T15:52:58;-11041.13;;;3.86;54.31
10145;BME280;5113;41.822;23.564;2023-02-01T15:56:06;-11044.78;;;4.00;54.36
10145;BME280;5113;41.822;23.564;2023-02-01T15:59:16;-11045.22;;;4.01;53.86
10145;BME280;5113;41.822;23.564;2023-02-01T16:02:28;-11042.25;;;3.90;54.18
10145;BME280;5113;41.822;23.564;2023-02-01T16:05:42;-11040.72;;;3.85;54.28
10145;BME280;5113;41.822;23.564;2023-02-01T16:08:51;-11043.09;;;3.93;54.07
10145;BME280;5113;41.822;23.564;2023-02-01T16:12:01;-11041.13;;;3.86;54.11
10145;BME280;5113;41.822;23.564;2023-02-01T16:15:08;-11037.22;;;3.72;53.81
10145;BME280;5113;41.822;23.564;2023-02-01T16:18:15;-11041.97;;;3.89;53.58
10145;BME280;5113;41.822;23.564;2023-02-01T16:21:22;-11039.72;;;3.81;53.69
10145;BME280;5113;41.822;23.564;2023-02-01T16:24:29;-11035.53;;;3.66;54.31
10145;BME280;5113;41.822;23.564;2023-02-01T16:27:38;-11041.56;;;3.88;53.44
10145;BME280;5113;41.822;23.564;2023-02-01T16:30:44;-11037.22;;;3.72;53.18
10145;BME280;5113;41.822;23.564;2023-02-01T16:33:51;-11042.13;;;3.90;51.93
10145;BME280;5113;41.822;23.564;2023-02-01T16:36:58;-11038.59;;;3.77;53.03
10145;BME280;5113;41.822;23.564;2023-02-01T16:40:08;-11038.88;;;3.78;51.97
10145;BME280;5113;41.822;23.564;2023-02-01T16:43:18;-11039.03;;;3.79;52.43
10145;BME280;5113;41.822;23.564;2023-02-01T16:46:26;-11035.09;;;3.64;53.35
10145;BME280;5113;41.822;23.564;2023-02-01T16:49:34;-11039.44;;;3.80;51.75
10145;BME280;5113;41.822;23.564;2023-02-01T16:52:41;-11043.38;;;3.94;50.33
10145;BME280;5113;41.822;23.564;2023-02-01T16:55:47;-11038.59;;;3.77;50.74
10145;BME280;5113;41.822;23.564;2023-02-01T16:58:55;-11035.81;;;3.67;50.89
10145;BME280;5113;41.822;23.564;2023-02-01T17:02:01;-11035.25;;;3.65;50.42
10145;BME280;5113;41.822;23.564;2023-02-01T17:05:09;-11031.31;;;3.51;51.49
10145;BME280;5113;41.822;23.564;2023-02-01T17:08:18;-11027.09;;;3.36;51.95